Cielo Di Vaiano — D5AQ2 — position and weather

sailwx.info

Track history (hours):
 
Tides and Currents Weather Stations Pressure Air Temp Water Temp Dewpoint Dewpoint Depression Visibility Wind Speed Wind Dir Waves Ship Positions

Cielo Di Vaiano

Last reported at 2015-Dec-23 14:33 UTC. Time now 2016-Feb-12 18:12 UTC.
Position N 38°56' E 118°03'.
Warning: this ship's position is 51 days out of date.

Length 183 m; draft 10.3 m.

Type: Cargo ship. MMSI: 636015421.

Date/timePositionNaut miles runAvg speedWind from/ knotsBaromVisibWave heightAir tempDewpointWater temp
2015-Dec-23 14:33N 38°56' E 118°03'1111.3
2015-Dec-23 13:33N 38°58' E 117°48'5 3.6
2015-Dec-23 12:09N 39°03' E 117°46'0 0.0
2015-Dec-23 11:21N 39°03' E 117°46'0 0.0
2015-Dec-23 10:33N 39°03' E 117°46'0 0.0
2015-Dec-23 09:27N 39°03' E 117°46'0 0.0
2015-Dec-23 08:33N 39°03' E 117°46'0 0.0
2015-Dec-23 07:27N 39°03' E 117°46'0 0.0
2015-Dec-23 06:33N 39°03' E 117°46'0 0.0
2015-Dec-23 05:27N 39°03' E 117°46'0 0.0
2015-Dec-23 04:33N 39°03' E 117°46'0 0.0
2015-Dec-23 03:21N 39°03' E 117°46'0 0.0
2015-Dec-23 02:09N 39°03' E 117°46'0 0.0
2015-Dec-23 01:33N 39°03' E 117°46'0 0.0
2015-Dec-23 00:33N 39°03' E 117°46'0 0.0
2015-Dec-22 23:27N 39°03' E 117°46'0 0.0
2015-Dec-22 22:33N 39°03' E 117°46'0 0.0
2015-Dec-22 21:27N 39°03' E 117°46'0 0.0
2015-Dec-22 20:33N 39°03' E 117°46'0 0.0
2015-Dec-22 19:33N 39°03' E 117°46'0 0.0
2015-Dec-22 18:27N 39°03' E 117°46'0 0.0
2015-Dec-22 17:33N 39°03' E 117°46'0 0.0
2015-Dec-22 16:33N 39°03' E 117°46'0 0.0
2015-Dec-22 15:33N 39°03' E 117°46'0 0.0
2015-Dec-22 14:33N 39°03' E 117°46'0 0.0
2015-Dec-22 13:27N 39°03' E 117°46'0 0.0
2015-Dec-22 12:33N 39°03' E 117°46'0 0.0
2015-Dec-22 11:33N 39°03' E 117°46'0 0.0
2015-Dec-22 09:33N 39°03' E 117°46'0 0.0
2015-Dec-22 08:27N 39°03' E 117°46'0 0.0
2015-Dec-22 07:09N 39°03' E 117°46'0 0.0
2015-Dec-22 06:33N 39°03' E 117°46'0 0.0
2015-Dec-22 05:33N 39°03' E 117°46'0 0.0
2015-Dec-22 04:33N 39°03' E 117°46'0 0.0
2015-Dec-22 03:33N 39°03' E 117°46'0 0.0
2015-Dec-22 01:33N 39°03' E 117°46'0 0.0
2015-Dec-22 00:09N 39°03' E 117°46'0 0.0
2015-Dec-21 23:15N 39°03' E 117°46'0 0.0
2015-Dec-21 22:33N 39°03' E 117°46'0 0.0
2015-Dec-21 21:21N 39°03' E 117°46'0 0.0
2015-Dec-21 20:33N 39°03' E 117°46'0 0.0
2015-Dec-21 19:15N 39°03' E 117°46'0 0.0
2015-Dec-21 18:21N 39°03' E 117°46'0 0.0
2015-Dec-21 17:33N 39°03' E 117°46'0 0.0
2015-Dec-21 16:33N 39°03' E 117°46'0 0.0
2015-Dec-21 15:27N 39°03' E 117°46'0 0.0
2015-Dec-21 14:33N 39°03' E 117°46'0 0.0
2015-Dec-21 13:33N 39°03' E 117°46'0 0.0
2015-Dec-21 12:33N 39°03' E 117°46'0 0.0
2015-Dec-21 11:33N 39°03' E 117°46'0 0.0
2015-Dec-21 10:27N 39°03' E 117°46'0 0.0
2015-Dec-21 09:21N 39°03' E 117°46'0 0.0
2015-Dec-21 08:27N 39°03' E 117°46'0 0.0
2015-Dec-21 07:33N 39°03' E 117°46'0 0.0
2015-Dec-21 06:33N 39°03' E 117°46'0 0.0
2015-Dec-21 05:33N 39°03' E 117°46'0 0.0
2015-Dec-21 04:27N 39°03' E 117°46'0 0.0
2015-Dec-21 03:33N 39°03' E 117°46'0 0.0
2015-Dec-21 01:21N 39°03' E 117°46'0 0.0
2015-Dec-21 00:33N 39°03' E 117°46'0 0.0
2015-Dec-20 23:21N 39°03' E 117°46'0 0.0
2015-Dec-20 22:33N 39°03' E 117°46'0 0.0
2015-Dec-20 21:33N 39°03' E 117°46'0 0.0
2015-Dec-20 20:27N 39°03' E 117°46'0 0.0
2015-Dec-20 19:27N 39°03' E 117°46'0 0.0
2015-Dec-20 18:33N 39°03' E 117°46'0 0.0
2015-Dec-20 17:21N 39°03' E 117°46'0 0.0
2015-Dec-20 16:33N 39°03' E 117°46'0 0.0
2015-Dec-20 15:27N 39°03' E 117°46'0 0.0
2015-Dec-20 14:21N 39°03' E 117°46'0 0.0
2015-Dec-20 13:33N 39°03' E 117°46'0 0.0
2015-Dec-20 12:33N 39°03' E 117°46'0 0.5
2015-Dec-20 11:33N 39°02' E 117°46'8 8.4
2015-Dec-20 10:33N 38°57' E 117°55'10 0.7
2015-Dec-19 19:31N 38°53' E 118°06'0 0.0
2015-Dec-17 22:23N 38°53' E 118°06'19810.0
2015-Dec-17 02:33N 40°18' E 121°59'6 5.8
2015-Dec-17 01:33N 40°15' E 122°06'0 0.1
2015-Dec-17 00:31N 40°15' E 122°06'0 0.0
2015-Dec-16 23:13N 40°15' E 122°06'0 0.0
2015-Dec-16 22:31N 40°15' E 122°06'0 0.0
2015-Dec-16 19:31N 40°15' E 122°06'0 0.0
2015-Dec-16 18:31N 40°15' E 122°06'0 0.0
2015-Dec-16 17:25N 40°15' E 122°06'0 0.0
2015-Dec-16 16:31N 40°15' E 122°06'0 0.0
2015-Dec-16 15:31N 40°15' E 122°06'0 0.0
2015-Dec-16 14:26N 40°15' E 122°06'0 0.0
2015-Dec-16 13:32N 40°15' E 122°06'0 0.0
2015-Dec-16 12:31N 40°15' E 122°06'0 0.0
2015-Dec-16 11:26N 40°15' E 122°06'0 0.0
2015-Dec-16 10:07N 40°15' E 122°06'0 0.0
2015-Dec-16 09:31N 40°15' E 122°06'0 0.0
2015-Dec-16 08:19N 40°15' E 122°06'0 0.0
2015-Dec-16 07:31N 40°15' E 122°06'8 0.3
2015-Dec-15 08:29N 40°18' E 121°57'  
Track history (hours):
 
Tides and Currents Weather Stations Pressure Air Temp Water Temp Dewpoint Dewpoint Depression Visibility Wind Speed Wind Dir Waves Ship Positions

Cielo Di Vaiano

Last reported at 2015-Dec-23 14:33 UTC. Time now 2016-Feb-12 18:12 UTC.
Position N 38°56' E 118°03'.
Warning: this ship's position is 51 days out of date.

Length 183 m; draft 10.3 m.

Type: Cargo ship. MMSI: 636015421.

Date/timePositionNaut miles runAvg speedWind from/ knotsBaromVisibWave heightAir tempDewpointWater temp
2015-Dec-23 14:33N 38°56' E 118°03'1111.3
2015-Dec-23 13:33N 38°58' E 117°48'5 3.6
2015-Dec-23 12:09N 39°03' E 117°46'0 0.0
2015-Dec-23 11:21N 39°03' E 117°46'0 0.0
2015-Dec-23 10:33N 39°03' E 117°46'0 0.0
2015-Dec-23 09:27N 39°03' E 117°46'0 0.0
2015-Dec-23 08:33N 39°03' E 117°46'0 0.0
2015-Dec-23 07:27N 39°03' E 117°46'0 0.0
2015-Dec-23 06:33N 39°03' E 117°46'0 0.0
2015-Dec-23 05:27N 39°03' E 117°46'0 0.0
2015-Dec-23 04:33N 39°03' E 117°46'0 0.0
2015-Dec-23 03:21N 39°03' E 117°46'0 0.0
2015-Dec-23 02:09N 39°03' E 117°46'0 0.0
2015-Dec-23 01:33N 39°03' E 117°46'0 0.0
2015-Dec-23 00:33N 39°03' E 117°46'0 0.0
2015-Dec-22 23:27N 39°03' E 117°46'0 0.0
2015-Dec-22 22:33N 39°03' E 117°46'0 0.0
2015-Dec-22 21:27N 39°03' E 117°46'0 0.0
2015-Dec-22 20:33N 39°03' E 117°46'0 0.0
2015-Dec-22 19:33N 39°03' E 117°46'0 0.0
2015-Dec-22 18:27N 39°03' E 117°46'0 0.0
2015-Dec-22 17:33N 39°03' E 117°46'0 0.0
2015-Dec-22 16:33N 39°03' E 117°46'0 0.0
2015-Dec-22 15:33N 39°03' E 117°46'0 0.0
2015-Dec-22 14:33N 39°03' E 117°46'0 0.0
2015-Dec-22 13:27N 39°03' E 117°46'0 0.0
2015-Dec-22 12:33N 39°03' E 117°46'0 0.0
2015-Dec-22 11:33N 39°03' E 117°46'0 0.0
2015-Dec-22 09:33N 39°03' E 117°46'0 0.0
2015-Dec-22 08:27N 39°03' E 117°46'0 0.0
2015-Dec-22 07:09N 39°03' E 117°46'0 0.0
2015-Dec-22 06:33N 39°03' E 117°46'0 0.0
2015-Dec-22 05:33N 39°03' E 117°46'0 0.0
2015-Dec-22 04:33N 39°03' E 117°46'0 0.0
2015-Dec-22 03:33N 39°03' E 117°46'0 0.0
2015-Dec-22 01:33N 39°03' E 117°46'0 0.0
2015-Dec-22 00:09N 39°03' E 117°46'0 0.0
2015-Dec-21 23:15N 39°03' E 117°46'0 0.0
2015-Dec-21 22:33N 39°03' E 117°46'0 0.0
2015-Dec-21 21:21N 39°03' E 117°46'0 0.0
2015-Dec-21 20:33N 39°03' E 117°46'0 0.0
2015-Dec-21 19:15N 39°03' E 117°46'0 0.0
2015-Dec-21 18:21N 39°03' E 117°46'0 0.0
2015-Dec-21 17:33N 39°03' E 117°46'0 0.0
2015-Dec-21 16:33N 39°03' E 117°46'0 0.0
2015-Dec-21 15:27N 39°03' E 117°46'0 0.0
2015-Dec-21 14:33N 39°03' E 117°46'0 0.0
2015-Dec-21 13:33N 39°03' E 117°46'0 0.0
2015-Dec-21 12:33N 39°03' E 117°46'0 0.0
2015-Dec-21 11:33N 39°03' E 117°46'0 0.0
2015-Dec-21 10:27N 39°03' E 117°46'0 0.0
2015-Dec-21 09:21N 39°03' E 117°46'0 0.0
2015-Dec-21 08:27N 39°03' E 117°46'0 0.0
2015-Dec-21 07:33N 39°03' E 117°46'0 0.0
2015-Dec-21 06:33N 39°03' E 117°46'0 0.0
2015-Dec-21 05:33N 39°03' E 117°46'0 0.0
2015-Dec-21 04:27N 39°03' E 117°46'0 0.0
2015-Dec-21 03:33N 39°03' E 117°46'0 0.0
2015-Dec-21 01:21N 39°03' E 117°46'0 0.0
2015-Dec-21 00:33N 39°03' E 117°46'0 0.0
2015-Dec-20 23:21N 39°03' E 117°46'0 0.0
2015-Dec-20 22:33N 39°03' E 117°46'0 0.0
2015-Dec-20 21:33N 39°03' E 117°46'0 0.0
2015-Dec-20 20:27N 39°03' E 117°46'0 0.0
2015-Dec-20 19:27N 39°03' E 117°46'0 0.0
2015-Dec-20 18:33N 39°03' E 117°46'0 0.0
2015-Dec-20 17:21N 39°03' E 117°46'0 0.0
2015-Dec-20 16:33N 39°03' E 117°46'0 0.0
2015-Dec-20 15:27N 39°03' E 117°46'0 0.0
2015-Dec-20 14:21N 39°03' E 117°46'0 0.0
2015-Dec-20 13:33N 39°03' E 117°46'0 0.0
2015-Dec-20 12:33N 39°03' E 117°46'0 0.5
2015-Dec-20 11:33N 39°02' E 117°46'8 8.4
2015-Dec-20 10:33N 38°57' E 117°55'10 0.7
2015-Dec-19 19:31N 38°53' E 118°06'0 0.0
2015-Dec-17 22:23N 38°53' E 118°06'19810.0
2015-Dec-17 02:33N 40°18' E 121°59'6 5.8
2015-Dec-17 01:33N 40°15' E 122°06'0 0.1
2015-Dec-17 00:31N 40°15' E 122°06'0 0.0
2015-Dec-16 23:13N 40°15' E 122°06'0 0.0
2015-Dec-16 22:31N 40°15' E 122°06'0 0.0
2015-Dec-16 19:31N 40°15' E 122°06'0 0.0
2015-Dec-16 18:31N 40°15' E 122°06'0 0.0
2015-Dec-16 17:25N 40°15' E 122°06'0 0.0
2015-Dec-16 16:31N 40°15' E 122°06'0 0.0
2015-Dec-16 15:31N 40°15' E 122°06'0 0.0
2015-Dec-16 14:26N 40°15' E 122°06'0 0.0
2015-Dec-16 13:32N 40°15' E 122°06'0 0.0
2015-Dec-16 12:31N 40°15' E 122°06'0 0.0
2015-Dec-16 11:26N 40°15' E 122°06'0 0.0
2015-Dec-16 10:07N 40°15' E 122°06'0 0.0
2015-Dec-16 09:31N 40°15' E 122°06'0 0.0
2015-Dec-16 08:19N 40°15' E 122°06'0 0.0
2015-Dec-16 07:31N 40°15' E 122°06'8 0.3
2015-Dec-15 08:29N 40°18' E 121°57'  

Dump ship's entire track history